Time;durP1;ratioP1;P1;durP2;ratioP2;P2;SDS_P1;SDS_P2;PMS_P1;PMS_P2;Temp;Humidity;BMP_temperature;BMP_pressure;BME280_temperature;BME280_humidity;BME280_pressure;Samples;Min_cycle;Max_cycle;Signal;HPM_P1;HPM_P2
2023/07/19 00:01:51;;;;;;;7.15;5.07;;;20.60;99.90;;;;;;4994537;28;20088;-72
2023/07/19 00:04:17;;;;;;;10.43;5.25;;;20.50;99.90;;;;;;5013191;28;20500;-72
2023/07/19 00:06:42;;;;;;;6.15;4.30;;;20.40;99.90;;;;;;5007236;28;20085;-73
2023/07/19 00:09:08;;;;;;;8.07;4.70;;;20.40;99.90;;;;;;4998273;28;20045;-73
2023/07/19 00:11:34;;;;;;;9.82;4.78;;;20.30;99.90;;;;;;5020592;28;20423;-72
2023/07/19 00:13:59;;;;;;;8.05;4.60;;;20.30;99.90;;;;;;5012703;28;20038;-72
2023/07/19 00:16:25;;;;;;;8.82;4.80;;;20.30;99.90;;;;;;4995218;28;20022;-72
2023/07/19 00:18:51;;;;;;;10.35;4.63;;;20.20;99.90;;;;;;4994863;28;20045;-72
2023/07/19 00:21:16;;;;;;;5.75;4.32;;;20.20;99.90;;;;;;4993616;28;20018;-71
2023/07/19 00:23:42;;;;;;;7.68;4.53;;;20.20;99.90;;;;;;4994774;28;20044;-72
2023/07/19 00:26:08;;;;;;;10.15;4.57;;;20.20;99.90;;;;;;4995012;28;20105;-72
2023/07/19 00:28:33;;;;;;;7.55;4.45;;;20.10;99.90;;;;;;5008799;28;20064;-72
2023/07/19 00:31:03;;;;;;;7.20;4.53;;;20.10;99.90;;;;;;5014448;28;20018;-72
2023/07/19 00:33:29;;;;;;;6.65;4.65;;;20.00;99.90;;;;;;5014191;28;20142;-72
2023/07/19 00:35:55;;;;;;;9.30;4.38;;;20.00;99.90;;;;;;5013873;28;20532;-72
2023/07/19 00:38:22;;;;;;;8.70;4.60;;;20.00;99.90;;;;;;5013845;28;20404;-72
2023/07/19 00:40:48;;;;;;;8.02;4.65;;;19.90;99.90;;;;;;5013792;28;20393;-72
2023/07/19 00:43:14;;;;;;;8.38;4.57;;;19.90;99.90;;;;;;5013781;28;20080;-72
2023/07/19 00:45:46;;;;;;;7.45;4.65;;;19.90;99.90;;;;;;5013865;28;20030;-72
2023/07/19 00:48:11;;;;;;;8.77;4.40;;;19.90;99.90;;;;;;5013503;28;20570;-72
2023/07/19 00:50:37;;;;;;;10.00;4.97;;;19.80;99.90;;;;;;5012406;28;20057;-73
2023/07/19 00:53:03;;;;;;;7.38;4.28;;;19.80;99.90;;;;;;5013790;28;20504;-73
2023/07/19 00:55:29;;;;;;;12.32;5.15;;;19.80;99.90;;;;;;5011125;28;20030;-72
2023/07/19 00:57:55;;;;;;;9.70;5.15;;;19.70;99.90;;;;;;5013684;28;20438;-72
2023/07/19 01:00:22;;;;;;;9.52;5.60;;;19.80;99.90;;;;;;5012186;28;20080;-72
2023/07/19 01:02:48;;;;;;;6.10;4.50;;;19.80;99.90;;;;;;5012562;28;20022;-71
2023/07/19 01:05:14;;;;;;;7.80;5.28;;;19.70;99.90;;;;;;5014237;28;20104;-72
2023/07/19 01:07:40;;;;;;;8.18;4.80;;;19.70;99.90;;;;;;5013837;28;20455;-72
2023/07/19 01:10:06;;;;;;;8.57;5.18;;;19.70;99.90;;;;;;5011722;28;20030;-72
2023/07/19 01:12:32;;;;;;;9.82;5.03;;;19.60;99.90;;;;;;5013288;28;20501;-72
2023/07/19 01:14:58;;;;;;;6.75;4.22;;;19.60;99.90;;;;;;5002775;28;20034;-72
2023/07/19 01:17:23;;;;;;;5.63;4.45;;;19.60;99.90;;;;;;5003399;28;20026;-73
2023/07/19 01:19:49;;;;;;;10.52;4.75;;;19.60;99.90;;;;;;5013112;28;20025;-72
2023/07/19 01:22:15;;;;;;;7.85;4.65;;;19.60;99.90;;;;;;5011684;28;20072;-73
2023/07/19 01:24:41;;;;;;;9.18;4.63;;;19.60;99.90;;;;;;4993769;28;20026;-72
2023/07/19 01:27:06;;;;;;;9.75;4.95;;;19.50;99.90;;;;;;4995810;28;20018;-72
2023/07/19 01:29:32;;;;;;;8.90;4.65;;;19.50;99.90;;;;;;5017803;28;20026;-72
2023/07/19 01:31:57;;;;;;;9.85;4.28;;;19.50;99.90;;;;;;5008079;28;20030;-72
2023/07/19 01:34:23;;;;;;;10.60;4.57;;;19.50;99.90;;;;;;5005767;28;20030;-72
2023/07/19 01:36:49;;;;;;;14.25;5.35;;;19.50;99.90;;;;;;5012867;28;20033;-72
2023/07/19 01:39:14;;;;;;;6.70;4.53;;;19.50;99.90;;;;;;5006447;28;20042;-73
2023/07/19 01:41:40;;;;;;;7.93;4.45;;;19.50;99.90;;;;;;5012820;28;20029;-72
2023/07/19 01:44:05;;;;;;;7.80;3.95;;;19.50;99.90;;;;;;5011088;28;20021;-72
2023/07/19 01:46:31;;;;;;;8.20;4.07;;;19.50;99.90;;;;;;5008161;28;20029;-73
2023/07/19 01:48:57;;;;;;;9.80;4.50;;;19.50;99.90;;;;;;5001434;28;20030;-73
2023/07/19 01:51:22;;;;;;;7.60;4.20;;;19.50;99.90;;;;;;5008162;28;20520;-73
2023/07/19 01:53:48;;;;;;;7.47;4.22;;;19.50;99.90;;;;;;5009583;28;20049;-73
2023/07/19 01:56:14;;;;;;;7.30;4.35;;;19.50;99.90;;;;;;5011531;28;20022;-74
2023/07/19 01:58:40;;;;;;;7.68;3.78;;;19.50;99.90;;;;;;5007532;28;20279;-72
2023/07/19 02:01:06;;;;;;;8.00;4.35;;;19.60;99.90;;;;;;5001964;28;20105;-72
2023/07/19 02:03:31;;;;;;;9.15;4.53;;;19.60;99.90;;;;;;4993462;28;20057;-72
2023/07/19 02:05:58;;;;;;;6.70;3.88;;;19.60;99.90;;;;;;5002739;28;20022;-72
2023/07/19 02:08:24;;;;;;;6.53;4.00;;;19.50;99.90;;;;;;5010840;28;20026;-72
2023/07/19 02:10:50;;;;;;;8.65;4.10;;;19.60;99.90;;;;;;5012664;28;20026;-73
2023/07/19 02:13:15;;;;;;;9.43;4.10;;;19.60;99.90;;;;;;5012832;28;20034;-72
2023/07/19 02:15:41;;;;;;;6.78;4.10;;;19.50;99.90;;;;;;5012949;28;20503;-72
2023/07/19 02:18:06;;;;;;;10.15;4.70;;;19.50;99.90;;;;;;5012491;28;20080;-72
2023/07/19 02:20:32;;;;;;;7.82;4.00;;;19.50;99.90;;;;;;5010387;28;20054;-73
2023/07/19 02:22:57;;;;;;;6.22;3.85;;;19.60;99.90;;;;;;5007163;28;20026;-72
2023/07/19 02:25:23;;;;;;;7.18;4.10;;;19.50;99.90;;;;;;4997130;28;20014;-72
2023/07/19 02:27:48;;;;;;;6.70;3.78;;;19.60;99.90;;;;;;5013975;28;20088;-72
2023/07/19 02:30:14;;;;;;;7.90;3.72;;;19.60;99.90;;;;;;5016087;28;20026;-72
2023/07/19 02:32:40;;;;;;;6.53;3.83;;;19.60;99.90;;;;;;5016877;28;20195;-73
2023/07/19 02:35:06;;;;;;;6.90;3.63;;;19.60;99.90;;;;;;5011945;28;20034;-72
2023/07/19 02:37:32;;;;;;;5.15;3.60;;;19.60;99.90;;;;;;5007562;28;20038;-72
2023/07/19 02:39:57;;;;;;;8.40;4.18;;;19.60;99.90;;;;;;5011160;28;20049;-72
2023/07/19 02:42:23;;;;;;;7.75;3.85;;;19.60;99.90;;;;;;5002232;28;20069;-73
2023/07/19 02:44:49;;;;;;;8.88;4.25;;;19.60;99.90;;;;;;5011795;28;20018;-72
2023/07/19 02:47:15;;;;;;;8.70;4.07;;;19.50;99.90;;;;;;5015525;28;20029;-72
2023/07/19 02:49:41;;;;;;;7.10;3.80;;;19.50;99.90;;;;;;5014708;28;20026;-72
2023/07/19 02:52:08;;;;;;;9.18;4.10;;;19.50;99.90;;;;;;5015040;28;20117;-72
2023/07/19 02:54:35;;;;;;;7.20;3.78;;;19.50;99.90;;;;;;5012632;28;20033;-72
2023/07/19 02:57:01;;;;;;;6.38;3.90;;;19.40;99.90;;;;;;5016194;28;20484;-72
2023/07/19 02:59:26;;;;;;;10.02;4.18;;;19.40;99.90;;;;;;5011912;28;20037;-70
2023/07/19 03:01:52;;;;;;;9.65;4.00;;;19.40;99.90;;;;;;5002148;28;20068;-71
2023/07/19 03:04:17;;;;;;;8.57;4.47;;;19.40;99.90;;;;;;5016261;28;20056;-71
2023/07/19 03:06:43;;;;;;;5.22;3.70;;;19.40;99.90;;;;;;5014959;28;20025;-71
2023/07/19 03:09:10;;;;;;;9.00;4.45;;;19.40;99.90;;;;;;5021610;23;20129;-78
2023/07/19 03:11:36;;;;;;;7.65;4.75;;;19.40;99.90;;;;;;5009828;28;20025;-78
2023/07/19 03:14:02;;;;;;;9.25;4.68;;;19.50;99.90;;;;;;5007912;28;20045;-77
2023/07/19 03:16:27;;;;;;;8.48;4.50;;;19.40;99.90;;;;;;5010354;28;20058;-77
2023/07/19 03:18:53;;;;;;;6.68;4.50;;;19.40;99.90;;;;;;5004353;28;20019;-77
2023/07/19 03:21:20;;;;;;;9.95;5.13;;;19.40;99.90;;;;;;4988303;28;20201;-77
2023/07/19 03:23:46;;;;;;;8.63;4.45;;;19.40;99.90;;;;;;5008189;28;20026;-77
2023/07/19 03:26:11;;;;;;;10.77;4.65;;;19.30;99.90;;;;;;4989115;28;20026;-77
2023/07/19 03:28:37;;;;;;;9.25;4.47;;;19.30;99.90;;;;;;4993647;28;20026;-78
2023/07/19 03:31:02;;;;;;;10.85;4.38;;;19.30;99.90;;;;;;4990427;28;20504;-75
2023/07/19 03:33:28;;;;;;;10.75;4.75;;;19.30;99.90;;;;;;4989619;28;20039;-77
2023/07/19 03:35:54;;;;;;;10.10;4.82;;;19.30;99.90;;;;;;4991261;28;20019;-77
2023/07/19 03:38:21;;;;;;;7.75;4.40;;;19.20;99.90;;;;;;4991277;28;20033;-75
2023/07/19 03:40:46;;;;;;;6.80;4.13;;;19.20;99.90;;;;;;4992824;28;20560;-74
2023/07/19 03:43:12;;;;;;;10.23;4.57;;;19.20;99.90;;;;;;4989122;28;20058;-73
2023/07/19 03:45:39;;;;;;;6.55;4.47;;;19.20;99.90;;;;;;4990069;28;20030;-77
2023/07/19 03:48:05;;;;;;;11.32;4.55;;;19.20;99.90;;;;;;4986252;28;20027;-76
2023/07/19 03:50:31;;;;;;;12.10;4.55;;;19.20;99.90;;;;;;4989410;28;20030;-76
2023/07/19 03:52:56;;;;;;;9.45;4.78;;;19.20;99.90;;;;;;4991877;28;20089;-75
2023/07/19 03:55:22;;;;;;;9.55;5.32;;;19.10;99.90;;;;;;4990290;28;20401;-77
2023/07/19 03:57:48;;;;;;;10.27;4.63;;;19.10;99.90;;;;;;4987814;28;20038;-77
2023/07/19 04:00:14;;;;;;;9.82;4.90;;;19.10;99.90;;;;;;4991696;28;20050;-75
2023/07/19 04:02:39;;;;;;;7.80;4.95;;;19.10;99.90;;;;;;4988037;28;20022;-77
2023/07/19 04:05:05;;;;;;;12.02;4.00;;;19.10;99.90;;;;;;4987337;28;20112;-76
2023/07/19 04:07:31;;;;;;;9.48;4.88;;;19.10;99.90;;;;;;4990086;28;20034;-78
2023/07/19 04:09:57;;;;;;;8.57;4.30;;;19.10;99.90;;;;;;4991852;28;20323;-75
2023/07/19 04:12:22;;;;;;;9.98;5.15;;;19.10;99.90;;;;;;4980063;28;20026;-76
2023/07/19 04:14:48;;;;;;;9.07;4.85;;;19.00;99.90;;;;;;4977428;28;20097;-77
2023/07/19 04:17:14;;;;;;;10.15;5.40;;;19.00;99.90;;;;;;4999063;28;20137;-76
2023/07/19 04:19:39;;;;;;;8.10;4.85;;;19.00;99.90;;;;;;4988670;28;20037;-76
2023/07/19 04:22:05;;;;;;;10.10;5.32;;;19.00;99.90;;;;;;4984353;28;20065;-72
2023/07/19 04:24:31;;;;;;;8.35;4.40;;;19.00;99.90;;;;;;4984677;28;20065;-71
2023/07/19 04:26:56;;;;;;;9.75;5.25;;;19.00;99.90;;;;;;4985872;28;20188;-69
2023/07/19 04:29:22;;;;;;;9.95;5.38;;;19.00;99.90;;;;;;4984996;28;20038;-68
2023/07/19 04:31:48;;;;;;;9.70;5.25;;;19.00;99.90;;;;;;4984234;28;20493;-71
2023/07/19 04:34:14;;;;;;;9.00;4.50;;;19.00;99.90;;;;;;4987739;28;20022;-73
2023/07/19 04:36:39;;;;;;;9.57;5.00;;;19.00;99.90;;;;;;4982726;28;20038;-71
2023/07/19 04:39:05;;;;;;;7.10;4.15;;;19.10;99.90;;;;;;4986203;28;20027;-70
2023/07/19 04:41:32;;;;;;;10.05;4.35;;;19.10;99.90;;;;;;4984425;28;20073;-70
2023/07/19 04:43:58;;;;;;;13.15;4.68;;;19.10;99.90;;;;;;4987340;28;20023;-71
2023/07/19 04:46:24;;;;;;;11.27;4.57;;;19.10;99.90;;;;;;4998774;28;20026;-71
2023/07/19 04:48:49;;;;;;;7.60;4.15;;;19.10;99.90;;;;;;4995610;28;20389;-69
2023/07/19 04:51:15;;;;;;;10.63;4.82;;;19.20;99.90;;;;;;4988803;28;20030;-71
2023/07/19 04:53:40;;;;;;;9.13;4.78;;;19.20;99.90;;;;;;4984765;28;20575;-70
2023/07/19 04:56:06;;;;;;;8.60;4.70;;;19.20;99.90;;;;;;4981540;28;20027;-70
2023/07/19 04:58:32;;;;;;;9.00;4.32;;;19.20;99.90;;;;;;4983847;28;20106;-70
2023/07/19 05:01:08;;;;;;;8.68;5.47;;;19.30;99.90;;;;;;4980201;28;20031;-69
2023/07/19 05:03:34;;;;;;;9.18;4.57;;;19.40;99.90;;;;;;5001677;28;20030;-69
2023/07/19 05:06:00;;;;;;;9.90;4.70;;;19.40;99.90;;;;;;4986683;28;20117;-68
2023/07/19 05:08:26;;;;;;;7.68;4.22;;;19.40;99.90;;;;;;4980470;28;20161;-70
2023/07/19 05:10:52;;;;;;;8.23;5.03;;;19.60;99.90;;;;;;4988148;28;20596;-70
2023/07/19 05:13:17;;;;;;;5.93;4.32;;;19.70;99.90;;;;;;4986409;28;20196;-69
2023/07/19 05:15:43;;;;;;;10.25;4.50;;;19.80;99.90;;;;;;4987804;28;20034;-69
2023/07/19 05:18:08;;;;;;;7.13;4.00;;;19.80;99.90;;;;;;4983428;28;20026;-70
2023/07/19 05:20:34;;;;;;;9.07;5.03;;;19.90;99.90;;;;;;4986236;28;20027;-72
2023/07/19 05:23:00;;;;;;;7.30;4.30;;;20.00;99.90;;;;;;4984875;28;20025;-71
2023/07/19 05:25:26;;;;;;;11.30;4.60;;;20.10;99.90;;;;;;4993837;28;20055;-72
2023/07/19 05:27:51;;;;;;;9.68;3.95;;;20.20;99.90;;;;;;4993488;28;20029;-72
2023/07/19 05:30:17;;;;;;;9.30;3.67;;;20.30;99.90;;;;;;4993791;28;20397;-72
2023/07/19 05:32:43;;;;;;;5.82;3.90;;;20.40;99.90;;;;;;4994251;28;20117;-72
2023/07/19 05:35:08;;;;;;;9.15;4.65;;;20.50;99.90;;;;;;4994033;28;20037;-72
2023/07/19 05:37:34;;;;;;;6.88;4.10;;;20.60;99.90;;;;;;4992209;28;20034;-72
2023/07/19 05:39:59;;;;;;;7.70;4.57;;;20.70;99.90;;;;;;4993669;28;20122;-72
2023/07/19 05:42:25;;;;;;;12.40;4.63;;;20.80;99.90;;;;;;4993027;28;20022;-73
2023/07/19 05:44:51;;;;;;;9.50;4.28;;;20.80;99.90;;;;;;4994220;28;20030;-74
2023/07/19 05:47:17;;;;;;;10.77;4.45;;;20.90;99.90;;;;;;4993023;28;20031;-74
2023/07/19 05:49:42;;;;;;;6.43;3.90;;;21.00;99.90;;;;;;4992735;28;20030;-73
2023/07/19 05:52:08;;;;;;;8.15;4.53;;;21.10;99.90;;;;;;4993985;28;20109;-74
2023/07/19 05:54:34;;;;;;;8.50;4.18;;;21.20;99.90;;;;;;4992679;28;20031;-74
2023/07/19 05:56:59;;;;;;;8.70;4.28;;;21.30;99.90;;;;;;4993880;28;20521;-75
2023/07/19 05:59:25;;;;;;;9.02;4.93;;;21.40;99.90;;;;;;4993630;28;20034;-75
2023/07/19 06:01:50;;;;;;;6.95;4.35;;;21.40;99.90;;;;;;4991719;28;20118;-75
2023/07/19 06:04:16;;;;;;;6.68;3.42;;;21.40;99.90;;;;;;5008921;28;20022;-74
2023/07/19 06:06:42;;;;;;;9.23;4.10;;;21.50;99.90;;;;;;4993569;28;20544;-75
2023/07/19 06:09:08;;;;;;;8.55;4.97;;;21.50;99.90;;;;;;4993787;28;20250;-75
2023/07/19 06:11:35;;;;;;;11.02;4.50;;;21.50;99.90;;;;;;4994051;28;20452;-74
2023/07/19 06:14:01;;;;;;;8.07;5.03;;;21.60;99.90;;;;;;4993844;28;20034;-75
2023/07/19 06:16:27;;;;;;;5.30;4.18;;;21.70;99.90;;;;;;4994003;28;20037;-75
2023/07/19 06:18:53;;;;;;;8.52;4.40;;;21.80;99.90;;;;;;4993355;28;20022;-76
2023/07/19 06:21:18;;;;;;;5.38;3.97;;;21.90;99.90;;;;;;4993888;28;20474;-75
2023/07/19 06:23:44;;;;;;;5.70;3.83;;;22.00;99.90;;;;;;4992828;28;20010;-75
2023/07/19 06:26:10;;;;;;;12.65;6.00;;;22.10;99.90;;;;;;4993877;28;20627;-76
2023/07/19 06:28:36;;;;;;;8.38;4.30;;;22.20;99.90;;;;;;4993599;28;20026;-76
2023/07/19 06:31:02;;;;;;;5.72;3.58;;;22.40;99.90;;;;;;4991694;28;20117;-76
2023/07/19 06:33:31;;;;;;;8.27;3.70;;;22.40;99.90;;;;;;4994481;28;20049;-76
2023/07/19 06:35:57;;;;;;;9.52;4.32;;;22.50;99.90;;;;;;4994053;28;20019;-75
2023/07/19 06:38:24;;;;;;;7.57;3.55;;;22.60;99.90;;;;;;4992473;28;20034;-75
2023/07/19 06:40:50;;;;;;;6.40;3.67;;;22.70;99.90;;;;;;4994068;28;20030;-76
2023/07/19 06:43:16;;;;;;;7.28;3.83;;;22.80;99.90;;;;;;5008556;28;20022;-76
2023/07/19 06:45:41;;;;;;;7.57;3.45;;;22.90;99.90;;;;;;5008898;28;20500;-76
2023/07/19 06:48:07;;;;;;;7.28;3.72;;;23.00;99.90;;;;;;4993570;28;20033;-75
2023/07/19 06:50:33;;;;;;;7.45;3.38;;;23.10;99.90;;;;;;4994576;28;20406;-76
2023/07/19 06:53:00;;;;;;;8.18;3.30;;;23.20;99.90;;;;;;4993959;28;20392;-76
2023/07/19 06:55:26;;;;;;;8.07;3.63;;;23.30;99.90;;;;;;5008908;28;20053;-75
2023/07/19 06:57:51;;;;;;;7.47;3.90;;;23.30;99.90;;;;;;4994376;28;20030;-76
2023/07/19 07:00:17;;;;;;;11.57;3.40;;;23.40;99.90;;;;;;4995735;28;20081;-76
2023/07/19 07:02:43;;;;;;;7.10;4.03;;;23.40;99.90;;;;;;4995938;28;20460;-76
2023/07/19 07:05:10;;;;;;;8.93;3.50;;;23.50;99.70;;;;;;4995295;28;20031;-76
2023/07/19 07:07:37;;;;;;;7.15;3.55;;;23.50;99.70;;;;;;4995815;28;20073;-75
2023/07/19 07:10:05;;;;;;;6.28;3.47;;;23.60;99.50;;;;;;4998433;28;20070;-75
2023/07/19 07:12:31;;;;;;;8.32;3.95;;;23.60;99.30;;;;;;4998749;28;20026;-76
2023/07/19 07:14:56;;;;;;;9.43;3.67;;;23.70;99.30;;;;;;4998626;28;20062;-75
2023/07/19 07:17:22;;;;;;;7.20;3.08;;;23.70;99.10;;;;;;5012982;28;20022;-74
2023/07/19 07:19:48;;;;;;;8.82;3.67;;;23.70;98.50;;;;;;5013580;28;20034;-75
2023/07/19 07:22:13;;;;;;;12.15;3.70;;;23.70;98.50;;;;;;4998547;28;20026;-75
2023/07/19 07:24:40;;;;;;;7.63;3.90;;;23.70;98.30;;;;;;4998093;28;20022;-75
2023/07/19 07:27:06;;;;;;;7.50;3.80;;;23.70;98.30;;;;;;4996938;28;20430;-77
2023/07/19 07:29:32;;;;;;;6.70;3.40;;;23.70;97.90;;;;;;4980002;28;20023;-77
2023/07/19 07:31:57;;;;;;;4.40;2.85;;;23.70;97.80;;;;;;4978200;28;20470;-77
2023/07/19 07:34:24;;;;;;;9.57;3.22;;;23.80;97.30;;;;;;4977109;28;20054;-74
2023/07/19 07:36:50;;;;;;;5.30;3.08;;;23.80;97.30;;;;;;4978432;28;20037;-76
2023/07/19 07:39:15;;;;;;;7.15;3.00;;;23.90;97.10;;;;;;4978946;28;20026;-76
2023/07/19 07:41:41;;;;;;;10.23;3.50;;;24.00;97.00;;;;;;4979072;28;20027;-76
2023/07/19 07:44:06;;;;;;;7.07;3.40;;;24.00;96.80;;;;;;4977544;28;20629;-75
2023/07/19 07:46:32;;;;;;;8.88;3.50;;;24.10;96.40;;;;;;4978009;28;20019;-75
2023/07/19 07:48:59;;;;;;;5.90;2.75;;;24.20;95.90;;;;;;4976705;28;20031;-75
2023/07/19 07:51:27;;;;;;;8.50;3.13;;;24.20;95.90;;;;;;4977970;28;20015;-75
2023/07/19 07:53:53;;;;;;;5.82;3.33;;;24.30;95.50;;;;;;4978169;28;20019;-75
2023/07/19 07:56:19;;;;;;;8.40;3.50;;;24.30;95.20;;;;;;4978090;28;20042;-75
2023/07/19 07:58:44;;;;;;;5.72;3.13;;;24.40;95.20;;;;;;4978219;28;20493;-75
2023/07/19 08:01:10;;;;;;;5.05;3.00;;;24.50;95.10;;;;;;5009613;28;20030;-76
2023/07/19 08:03:37;;;;;;;9.77;3.70;;;24.50;94.90;;;;;;4996704;28;20050;-76
2023/07/19 08:06:04;;;;;;;5.85;3.13;;;24.50;95.00;;;;;;4998260;28;20069;-76
2023/07/19 08:08:30;;;;;;;9.10;3.03;;;24.60;94.70;;;;;;4998060;28;20485;-75
2023/07/19 08:10:56;;;;;;;6.07;3.30;;;24.60;94.90;;;;;;5012790;28;20030;-76
2023/07/19 08:13:22;;;;;;;5.47;2.63;;;24.70;94.90;;;;;;4996458;28;20184;-76
2023/07/19 08:15:48;;;;;;;9.18;3.25;;;24.70;94.80;;;;;;4997402;28;20495;-76
2023/07/19 08:18:14;;;;;;;5.63;2.83;;;24.80;94.50;;;;;;4997057;28;20056;-76
2023/07/19 08:20:40;;;;;;;6.43;2.78;;;24.80;94.10;;;;;;4995546;28;20069;-76
2023/07/19 08:23:06;;;;;;;4.50;2.80;;;24.80;93.80;;;;;;4997159;28;20031;-76
2023/07/19 08:25:35;;;;;;;7.22;3.05;;;24.80;93.60;;;;;;4997428;28;20041;-76
2023/07/19 08:28:00;;;;;;;6.82;3.40;;;24.80;93.10;;;;;;5012280;28;20023;-76
2023/07/19 08:30:27;;;;;;;3.83;2.75;;;24.80;93.40;;;;;;5012455;28;20027;-76
2023/07/19 08:32:53;;;;;;;7.15;3.03;;;24.80;93.70;;;;;;4997123;28;20113;-76
2023/07/19 08:35:21;;;;;;;7.28;2.45;;;24.70;93.50;;;;;;5012152;28;20077;-76
2023/07/19 08:37:47;;;;;;;5.25;2.97;;;24.70;93.20;;;;;;4996931;28;20018;-76
2023/07/19 08:40:15;;;;;;;6.03;2.88;;;24.70;93.40;;;;;;4995104;28;20041;-76
2023/07/19 08:42:42;;;;;;;5.28;2.53;;;24.70;93.70;;;;;;4996853;28;20029;-74
2023/07/19 08:45:09;;;;;;;5.47;2.28;;;24.80;93.80;;;;;;4995694;28;20030;-75
2023/07/19 08:47:37;;;;;;;4.50;2.10;;;24.80;93.20;;;;;;4996329;28;20022;-76
2023/07/19 08:50:04;;;;;;;5.25;3.00;;;24.90;93.20;;;;;;4997428;28;20033;-75
2023/07/19 08:52:34;;;;;;;5.20;2.85;;;24.90;92.90;;;;;;4996045;28;20496;-75
2023/07/19 08:55:00;;;;;;;5.18;2.60;;;25.00;92.70;;;;;;4995460;28;20038;-75
2023/07/19 08:57:27;;;;;;;7.43;3.10;;;25.00;92.50;;;;;;4996222;28;20026;-75
2023/07/19 08:59:52;;;;;;;4.38;2.30;;;25.10;92.50;;;;;;4994178;28;20094;-75
2023/07/19 09:02:18;;;;;;;6.13;3.13;;;25.20;92.30;;;;;;4995438;28;20070;-75
2023/07/19 09:05:05;;;;;;;6.82;3.08;;;25.30;92.20;;;;;;4993570;28;20057;-74
2023/07/19 09:07:31;;;;;;;5.45;2.50;;;25.40;91.70;;;;;;4994762;28;20153;-74
2023/07/19 09:09:57;;;;;;;4.80;2.50;;;25.50;90.90;;;;;;5017870;23;20042;-72
2023/07/19 09:12:23;;;;;;;7.35;2.33;;;25.50;90.30;;;;;;5003765;28;20634;-71
2023/07/19 09:14:48;;;;;;;6.88;2.67;;;25.60;90.10;;;;;;5003692;28;20026;-72
2023/07/19 09:17:14;;;;;;;7.35;2.42;;;25.60;90.30;;;;;;5003936;28;20032;-71
2023/07/19 09:19:43;;;;;;;5.95;2.58;;;25.70;90.10;;;;;;4999888;28;20041;-72
2023/07/19 09:22:09;;;;;;;6.57;2.85;;;25.80;89.10;;;;;;4987039;28;20034;-71
2023/07/19 09:24:35;;;;;;;7.47;2.50;;;25.80;88.80;;;;;;4984089;28;20054;-72
2023/07/19 09:27:01;;;;;;;5.28;2.55;;;25.80;88.40;;;;;;4987707;28;20064;-71
2023/07/19 09:29:31;;;;;;;5.53;2.72;;;25.80;88.10;;;;;;4992751;28;20061;-71
2023/07/19 09:32:02;;;;;;;6.63;2.40;;;25.80;87.60;;;;;;4981757;28;20034;-72
2023/07/19 09:34:37;;;;;;;6.85;2.63;;;25.80;86.50;;;;;;4990482;28;20400;-71
2023/07/19 09:37:04;;;;;;;9.82;2.08;;;25.90;86.20;;;;;;4987185;28;20030;-72
2023/07/19 09:39:32;;;;;;;8.10;2.22;;;25.90;85.30;;;;;;4990034;28;20109;-72
2023/07/19 09:41:58;;;;;;;9.80;2.28;;;25.90;83.80;;;;;;4991519;28;20029;-72
2023/07/19 09:44:24;;;;;;;5.72;2.35;;;26.00;83.00;;;;;;4985331;28;20030;-71
2023/07/19 09:46:49;;;;;;;3.97;2.25;;;26.10;83.40;;;;;;4987083;28;20025;-71
2023/07/19 09:49:15;;;;;;;4.57;2.10;;;26.10;83.10;;;;;;4989913;28;20441;-71
2023/07/19 09:51:42;;;;;;;5.82;2.22;;;26.20;82.40;;;;;;4987729;28;20050;-72
2023/07/19 09:54:12;;;;;;;4.75;2.03;;;26.30;82.80;;;;;;4991504;28;20481;-71
2023/07/19 09:56:40;;;;;;;4.40;2.00;;;26.30;82.50;;;;;;4989616;28;20045;-71
2023/07/19 09:59:10;;;;;;;9.43;2.08;;;26.30;82.40;;;;;;5003670;28;20026;-71
2023/07/19 10:01:37;;;;;;;7.85;2.42;;;26.30;82.80;;;;;;4987497;28;20516;-71
2023/07/19 10:04:23;;;;;;;5.00;2.35;;;26.30;81.80;;;;;;4991720;28;20045;-71
2023/07/19 10:07:02;;;;;;;3.40;1.95;;;26.40;82.00;;;;;;4986691;28;20018;-71
2023/07/19 10:09:47;;;;;;;7.72;2.47;;;26.40;82.10;;;;;;4988358;28;20038;-72
2023/07/19 10:12:15;;;;;;;5.88;2.25;;;26.40;80.90;;;;;;4991338;28;20038;-71
2023/07/19 10:14:54;;;;;;;3.30;2.40;;;26.50;80.90;;;;;;4988763;28;20019;-71
2023/07/19 10:17:21;;;;;;;5.80;2.78;;;26.60;79.90;;;;;;4985214;28;20034;-72
2023/07/19 10:19:56;;;;;;;6.03;2.60;;;26.70;80.20;;;;;;4988964;28;20617;-71
2023/07/19 10:22:42;;;;;;;5.60;2.50;;;26.70;80.00;;;;;;4983317;28;20022;-71
2023/07/19 10:25:09;;;;;;;5.20;2.58;;;26.80;79.80;;;;;;4997257;28;20026;-71
2023/07/19 10:27:35;;;;;;;9.18;2.95;;;26.90;79.30;;;;;;4983138;28;20065;-71
2023/07/19 10:30:05;;;;;;;4.82;2.47;;;26.90;77.50;;;;;;4983682;28;20100;-71
2023/07/19 10:32:30;;;;;;;7.10;2.30;;;27.00;78.00;;;;;;4996597;28;20038;-71
2023/07/19 10:34:56;;;;;;;4.75;2.25;;;27.10;78.00;;;;;;4978948;28;20030;-72
2023/07/19 10:37:22;;;;;;;4.65;2.38;;;27.10;77.70;;;;;;4983313;28;20034;-71
2023/07/19 10:39:48;;;;;;;5.97;2.67;;;27.20;76.80;;;;;;4983526;28;20042;-71
2023/07/19 10:42:13;;;;;;;5.43;2.70;;;27.30;75.80;;;;;;4985958;28;20018;-72
2023/07/19 10:44:40;;;;;;;7.90;3.03;;;27.40;75.20;;;;;;4992511;28;20429;-72
2023/07/19 10:47:06;;;;;;;6.50;2.70;;;27.50;74.70;;;;;;4980738;28;20026;-72
2023/07/19 10:49:31;;;;;;;9.50;3.08;;;27.50;74.20;;;;;;4987059;28;20049;-72
2023/07/19 10:51:58;;;;;;;5.32;2.60;;;27.50;72.80;;;;;;4987457;28;20045;-71
2023/07/19 10:54:25;;;;;;;6.10;2.70;;;27.50;72.80;;;;;;4987441;28;20034;-72
2023/07/19 10:56:52;;;;;;;8.65;2.65;;;27.60;73.10;;;;;;4985292;28;20057;-71
2023/07/19 10:59:19;;;;;;;8.38;2.85;;;27.60;72.90;;;;;;4986122;28;20061;-73
2023/07/19 11:01:48;;;;;;;9.13;2.72;;;27.60;72.90;;;;;;4990909;28;20608;-72
2023/07/19 11:04:14;;;;;;;8.15;3.00;;;27.60;72.70;;;;;;4993498;28;20018;-71
2023/07/19 11:06:56;;;;;;;9.55;3.00;;;27.70;73.40;;;;;;4991351;28;20150;-71
2023/07/19 11:09:22;;;;;;;4.18;2.35;;;27.70;73.00;;;;;;4989628;28;20125;-72
2023/07/19 11:11:49;;;;;;;5.88;2.45;;;27.80;72.40;;;;;;4994580;28;20023;-72
2023/07/19 11:14:31;;;;;;;5.43;2.83;;;27.90;71.80;;;;;;4991215;28;20537;-72
2023/07/19 11:16:58;;;;;;;5.28;2.83;;;27.90;71.30;;;;;;4990981;28;20030;-72
2023/07/19 11:19:40;;;;;;;5.00;3.10;;;27.80;71.70;;;;;;4989196;28;20081;-71
2023/07/19 11:22:07;;;;;;;5.35;2.55;;;27.80;72.50;;;;;;4987531;28;20070;-72
2023/07/19 11:24:38;;;;;;;6.10;2.88;;;27.80;71.90;;;;;;4992515;28;20461;-72
2023/07/19 11:27:04;;;;;;;8.65;2.55;;;27.80;72.70;;;;;;4988163;28;20397;-72
2023/07/19 11:29:31;;;;;;;4.30;2.60;;;27.80;72.30;;;;;;4989749;28;20496;-72
2023/07/19 11:32:12;;;;;;;5.00;2.70;;;27.80;71.80;;;;;;4991583;28;21025;-72
2023/07/19 11:35:04;;;;;;;5.05;2.72;;;27.80;71.20;;;;;;4988744;28;20185;-72
2023/07/19 11:37:38;;;;;;;8.13;2.80;;;27.80;71.40;;;;;;4993577;28;20579;-72
2023/07/19 11:40:05;;;;;;;4.78;2.80;;;27.80;71.10;;;;;;4990102;28;20026;-72
2023/07/19 11:42:46;;;;;;;6.18;3.08;;;27.80;71.20;;;;;;4986727;28;20053;-72
2023/07/19 11:45:14;;;;;;;6.45;3.03;;;27.90;71.40;;;;;;4990926;28;20029;-72
2023/07/19 11:47:41;;;;;;;6.90;2.85;;;27.90;71.50;;;;;;4983485;28;20047;-72
2023/07/19 11:50:11;;;;;;;8.00;2.67;;;27.90;71.20;;;;;;4989996;28;20500;-72
2023/07/19 11:52:48;;;;;;;5.63;3.08;;;28.00;70.90;;;;;;4985522;28;20034;-72
2023/07/19 11:55:16;;;;;;;5.70;2.95;;;28.10;70.40;;;;;;4983711;28;20030;-72
2023/07/19 11:57:43;;;;;;;7.15;3.15;;;28.20;70.10;;;;;;4987615;28;20046;-71
2023/07/19 12:00:10;;;;;;;5.40;3.33;;;28.30;70.30;;;;;;4986715;28;20018;-72
2023/07/19 12:02:36;;;;;;;4.28;2.70;;;28.30;70.50;;;;;;4988086;28;20034;-72
2023/07/19 12:05:05;;;;;;;6.38;2.90;;;28.40;70.10;;;;;;4990696;28;20089;-72
2023/07/19 12:07:32;;;;;;;4.85;2.60;;;28.40;69.00;;;;;;5002087;28;20101;-72
2023/07/19 12:09:58;;;;;;;3.63;2.67;;;28.40;68.20;;;;;;4992451;28;20030;-72
2023/07/19 12:12:24;;;;;;;11.75;3.05;;;28.30;67.90;;;;;;4988965;28;20397;-72
2023/07/19 12:14:50;;;;;;;6.82;2.58;;;28.40;68.60;;;;;;4989837;28;20042;-72
2023/07/19 12:17:15;;;;;;;7.55;2.65;;;28.40;67.30;;;;;;4988675;28;20069;-72
2023/07/19 12:19:41;;;;;;;5.47;3.10;;;28.40;67.00;;;;;;4986757;28;20030;-70
2023/07/19 12:22:09;;;;;;;4.45;2.70;;;28.50;66.10;;;;;;4992517;28;20042;-71
2023/07/19 12:24:34;;;;;;;6.70;2.90;;;28.50;65.50;;;;;;4982362;28;20030;-71
2023/07/19 12:27:00;;;;;;;3.88;2.55;;;28.60;66.00;;;;;;4982431;28;20035;-72
2023/07/19 12:29:26;;;;;;;7.32;3.30;;;28.60;66.00;;;;;;4991654;28;20023;-72
2023/07/19 12:31:52;;;;;;;6.53;3.08;;;28.70;66.10;;;;;;4986068;28;20030;-72
2023/07/19 12:34:20;;;;;;;4.10;2.53;;;28.60;65.10;;;;;;4989207;28;20034;-71
2023/07/19 12:36:50;;;;;;;5.68;2.92;;;28.60;65.40;;;;;;4984999;28;20429;-71
2023/07/19 12:39:18;;;;;;;7.10;3.08;;;28.60;65.10;;;;;;4992903;28;20037;-70
2023/07/19 12:41:44;;;;;;;6.53;3.13;;;28.60;65.30;;;;;;4985826;28;20105;-70
2023/07/19 12:44:10;;;;;;;11.32;4.20;;;28.60;65.50;;;;;;4982531;28;20114;-71